createdAt,value
2023-05-23T00:02:23.431Z,9.10
2023-05-23T00:05:09.438Z,8.20
2023-05-23T00:07:55.153Z,8.50
2023-05-23T00:10:41.128Z,8.00
2023-05-23T00:13:27.008Z,8.40
2023-05-23T00:16:13.251Z,8.05
2023-05-23T00:18:59.383Z,7.88
2023-05-23T00:21:51.261Z,8.13
2023-05-23T00:24:37.199Z,8.57
2023-05-23T00:27:22.909Z,8.95
2023-05-23T00:30:08.648Z,8.75
2023-05-23T00:32:55.313Z,7.75
2023-05-23T00:35:44.133Z,7.95
2023-05-23T00:38:30.660Z,8.52
2023-05-23T00:41:18.494Z,8.25
2023-05-23T00:44:06.019Z,7.13
2023-05-23T00:46:54.060Z,7.72
2023-05-23T00:49:41.067Z,7.00
2023-05-23T00:52:26.847Z,6.80
2023-05-23T00:55:13.395Z,7.68
2023-05-23T00:57:59.190Z,8.10
2023-05-23T01:00:45.538Z,8.82
2023-05-23T01:03:31.476Z,9.63
2023-05-23T01:06:17.761Z,10.68
2023-05-23T01:09:03.633Z,10.40
2023-05-23T01:12:15.490Z,10.18
2023-05-23T01:15:22.026Z,8.90
2023-05-23T01:18:18.427Z,8.93
2023-05-23T01:21:09.040Z,9.05
2023-05-23T01:24:11.583Z,8.02
2023-05-23T01:27:08.706Z,8.40
2023-05-23T01:29:58.695Z,8.00
2023-05-23T01:32:45.339Z,8.38
2023-05-23T01:35:31.892Z,9.00
2023-05-23T01:38:17.906Z,8.50
2023-05-23T01:41:04.067Z,8.98
2023-05-23T01:43:49.987Z,8.70
2023-05-23T01:46:36.052Z,9.25
2023-05-23T01:49:22.287Z,8.63
2023-05-23T01:52:09.983Z,8.60
2023-05-23T01:54:57.312Z,8.85
2023-05-23T01:57:44.308Z,8.80
2023-05-23T02:00:30.028Z,8.52
2023-05-23T02:03:17.315Z,8.15
2023-05-23T02:06:03.455Z,8.15
2023-05-23T02:08:49.225Z,8.25
2023-05-23T02:11:35.760Z,8.95
2023-05-23T02:14:21.727Z,8.65
2023-05-23T02:17:07.769Z,7.97
2023-05-23T02:19:54.429Z,8.13
2023-05-23T02:22:40.408Z,8.43
2023-05-23T02:25:28.089Z,8.40
2023-05-23T02:28:13.808Z,9.10
2023-05-23T02:30:59.574Z,8.75
2023-05-23T02:33:45.216Z,9.50
2023-05-23T02:36:33.499Z,8.50
2023-05-23T02:39:19.542Z,8.70
2023-05-23T02:42:06.017Z,8.90
2023-05-23T02:44:51.834Z,7.97
2023-05-23T02:47:38.619Z,9.50
2023-05-23T02:50:24.350Z,9.52
2023-05-23T02:53:10.320Z,8.77
2023-05-23T02:55:56.457Z,8.73
2023-05-23T02:58:43.051Z,8.02
2023-05-23T03:01:28.972Z,8.43
2023-05-23T03:04:15.287Z,10.80
2023-05-23T03:07:05.438Z,10.90
2023-05-23T03:09:53.241Z,9.40
2023-05-23T03:12:39.039Z,8.70
2023-05-23T03:15:25.017Z,8.85
2023-05-23T03:18:11.386Z,8.85
2023-05-23T03:20:58.315Z,8.20
2023-05-23T03:23:43.847Z,9.10
2023-05-23T03:26:29.526Z,9.25
2023-05-23T03:29:15.781Z,9.13
2023-05-23T03:32:02.888Z,9.02
2023-05-23T03:34:48.859Z,9.20
2023-05-23T03:37:35.300Z,8.23
2023-05-23T03:40:22.075Z,8.88
2023-05-23T03:43:08.843Z,8.98
2023-05-23T03:45:58.983Z,8.40
2023-05-23T03:48:45.336Z,8.98
2023-05-23T03:51:31.733Z,8.40
2023-05-23T03:54:18.355Z,8.85
2023-05-23T03:57:04.639Z,8.85
2023-05-23T03:59:51.118Z,8.02
2023-05-23T04:02:40.184Z,8.15
2023-05-23T04:05:26.448Z,8.07
2023-05-23T04:08:13.161Z,8.05
2023-05-23T04:11:02.392Z,8.00
2023-05-23T04:13:53.438Z,8.63
2023-05-23T04:16:41.899Z,7.78
2023-05-23T04:19:28.468Z,7.85
2023-05-23T04:22:14.680Z,7.28
2023-05-23T04:25:00.599Z,7.47
2023-05-23T04:27:54.404Z,6.95
2023-05-23T04:30:40.981Z,7.25
2023-05-23T04:33:28.308Z,7.30
2023-05-23T04:36:14.086Z,7.70
2023-05-23T04:39:05.644Z,7.28
2023-05-23T04:41:54.874Z,7.03
2023-05-23T04:45:22.150Z,6.50
2023-05-23T04:48:38.803Z,7.05
2023-05-23T04:51:25.230Z,7.13
2023-05-23T04:54:15.342Z,7.00
2023-05-23T04:57:01.612Z,8.25
2023-05-23T04:59:48.216Z,6.85
2023-05-23T05:02:36.815Z,6.95
2023-05-23T05:05:22.712Z,6.78
2023-05-23T05:08:09.040Z,7.18
2023-05-23T05:10:55.852Z,6.68
2023-05-23T05:13:42.405Z,6.15
2023-05-23T05:16:27.952Z,12.45
2023-05-23T05:19:14.159Z,6.25
2023-05-23T05:22:00.369Z,6.20
2023-05-23T05:24:47.001Z,6.43
2023-05-23T05:27:32.409Z,6.18
2023-05-23T05:30:18.862Z,6.07
2023-05-23T05:33:10.236Z,6.85
2023-05-23T05:35:56.431Z,6.05
2023-05-23T05:38:42.324Z,6.53
2023-05-23T05:41:28.426Z,6.07
2023-05-23T05:44:13.679Z,6.10
2023-05-23T05:46:59.418Z,6.53
2023-05-23T05:49:44.918Z,5.55
2023-05-23T05:52:30.611Z,6.20
2023-05-23T05:55:16.071Z,6.63
2023-05-23T05:58:05.632Z,5.60
2023-05-23T06:01:05.767Z,6.05
2023-05-23T06:03:51.807Z,5.88
2023-05-23T06:06:37.979Z,5.28
2023-05-23T06:09:24.311Z,5.95
2023-05-23T06:12:10.289Z,5.53
2023-05-23T06:14:56.386Z,5.30
2023-05-23T06:17:43.038Z,5.82
2023-05-23T06:20:29.407Z,5.90
2023-05-23T06:23:18.924Z,5.18
2023-05-23T06:26:10.721Z,7.05
2023-05-23T06:28:56.314Z,5.30
2023-05-23T06:31:42.155Z,5.97
2023-05-23T06:34:28.344Z,5.70
2023-05-23T06:37:17.893Z,5.85
2023-05-23T06:40:04.853Z,5.50
2023-05-23T06:42:51.761Z,4.90
2023-05-23T06:46:12.619Z,5.68
2023-05-23T06:49:13.204Z,5.00
2023-05-23T06:52:00.897Z,5.60
2023-05-23T06:54:46.578Z,5.43
2023-05-23T06:57:32.640Z,5.00
2023-05-23T07:00:19.635Z,4.53
2023-05-23T07:03:18.600Z,5.15
2023-05-23T07:06:05.131Z,4.85
2023-05-23T07:08:50.974Z,4.80
2023-05-23T07:11:39.544Z,4.90
2023-05-23T07:14:25.814Z,4.88
2023-05-23T07:17:12.311Z,5.82
2023-05-23T07:19:58.155Z,5.00
2023-05-23T07:22:45.654Z,4.82
2023-05-23T07:25:31.277Z,4.60
2023-05-23T07:28:17.532Z,4.93
2023-05-23T07:31:03.699Z,5.22
2023-05-23T07:33:50.606Z,4.72
2023-05-23T07:36:45.738Z,4.70
2023-05-23T07:39:32.802Z,5.03
2023-05-23T07:42:19.772Z,4.50
2023-05-23T07:45:06.874Z,4.63
2023-05-23T07:47:53.627Z,4.95
2023-05-23T07:50:42.945Z,5.70
2023-05-23T07:53:29.042Z,5.40
2023-05-23T07:56:15.813Z,4.88
2023-05-23T07:59:02.423Z,4.80
2023-05-23T08:01:50.722Z,4.70
2023-05-23T08:04:40.400Z,5.43
2023-05-23T08:07:27.080Z,4.03
2023-05-23T08:10:17.490Z,4.45
2023-05-23T08:13:06.865Z,4.25
2023-05-23T08:15:57.996Z,3.85
2023-05-23T08:18:47.939Z,4.80
2023-05-23T08:21:36.326Z,4.90
2023-05-23T08:24:22.427Z,4.30
2023-05-23T08:27:08.582Z,3.95
2023-05-23T08:29:55.954Z,4.47
2023-05-23T08:32:41.917Z,3.85
2023-05-23T08:35:29.408Z,3.72
2023-05-23T08:38:15.264Z,4.05
2023-05-23T08:41:30.701Z,3.25
2023-05-23T08:44:23.075Z,3.28
2023-05-23T08:47:17.507Z,3.40
2023-05-23T08:50:14.573Z,3.47
2023-05-23T08:53:00.615Z,4.00
2023-05-23T08:55:48.862Z,3.60
2023-05-23T08:58:35.702Z,3.72
2023-05-23T09:01:23.284Z,3.60
2023-05-23T09:04:12.398Z,3.33
2023-05-23T09:07:12.109Z,3.35
2023-05-23T09:09:58.223Z,3.15
2023-05-23T09:12:43.769Z,2.88
2023-05-23T09:15:31.961Z,2.85
2023-05-23T09:18:18.573Z,2.75
2023-05-23T09:21:05.286Z,2.97
2023-05-23T09:23:53.293Z,2.97
2023-05-23T09:26:39.745Z,3.30
2023-05-23T09:29:25.733Z,2.92
2023-05-23T09:32:16.451Z,3.40
2023-05-23T09:35:04.732Z,2.90
2023-05-23T09:37:52.597Z,3.00
2023-05-23T09:40:38.034Z,2.95
2023-05-23T09:43:24.158Z,2.72
2023-05-23T09:46:11.761Z,3.15
2023-05-23T09:49:00.223Z,3.30
2023-05-23T09:52:00.866Z,2.90
2023-05-23T09:54:47.718Z,2.80
2023-05-23T09:57:38.702Z,2.85
2023-05-23T10:00:28.563Z,2.75
2023-05-23T10:03:15.218Z,3.35
2023-05-23T10:06:07.464Z,3.30
2023-05-23T10:09:04.628Z,3.20
2023-05-23T10:11:59.787Z,3.35
2023-05-23T10:14:46.514Z,3.30
2023-05-23T10:17:41.313Z,3.25
2023-05-23T10:20:31.886Z,3.28
2023-05-23T10:23:18.993Z,3.45
2023-05-23T10:26:05.346Z,3.70
2023-05-23T10:28:51.835Z,3.30
2023-05-23T10:31:38.347Z,3.85
2023-05-23T10:34:54.615Z,3.78
2023-05-23T10:37:53.348Z,3.47
2023-05-23T10:40:52.927Z,3.25
2023-05-23T10:43:54.158Z,3.10
2023-05-23T10:47:02.270Z,3.00
2023-05-23T10:49:52.403Z,3.28
2023-05-23T10:52:42.124Z,3.30
2023-05-23T10:55:32.111Z,3.80
2023-05-23T10:58:22.886Z,3.72
2023-05-23T11:01:09.749Z,3.20
2023-05-23T11:03:56.351Z,3.67
2023-05-23T11:06:44.569Z,3.03
2023-05-23T11:09:30.779Z,3.45
2023-05-23T11:12:16.388Z,3.70
2023-05-23T11:15:02.703Z,3.35
2023-05-23T11:17:52.628Z,2.95
2023-05-23T11:20:39.194Z,3.72
2023-05-23T11:23:24.871Z,3.40
2023-05-23T11:26:30.520Z,3.50
2023-05-23T11:29:16.583Z,3.00
2023-05-23T11:32:16.013Z,2.92
2023-05-23T11:35:05.230Z,3.30
2023-05-23T11:37:51.289Z,3.70
2023-05-23T11:40:38.003Z,3.03
2023-05-23T11:43:24.267Z,3.42
2023-05-23T11:46:09.696Z,3.45
2023-05-23T11:48:55.432Z,3.50
2023-05-23T11:51:40.804Z,3.15
2023-05-23T11:54:27.468Z,3.60
2023-05-23T11:57:14.072Z,3.03
2023-05-23T12:00:00.302Z,2.85
2023-05-23T12:02:47.722Z,3.28
2023-05-23T12:05:33.506Z,3.22
2023-05-23T12:08:18.877Z,2.92
2023-05-23T12:11:04.911Z,3.55
2023-05-23T12:13:55.467Z,3.33
2023-05-23T12:16:43.932Z,3.03
2023-05-23T12:19:29.934Z,2.85
2023-05-23T12:22:23.398Z,3.40
2023-05-23T12:25:10.770Z,3.10
2023-05-23T12:27:56.798Z,3.40
2023-05-23T12:30:43.105Z,3.15
2023-05-23T12:33:29.173Z,3.10
2023-05-23T12:36:22.947Z,3.28
2023-05-23T12:39:09.487Z,3.55
2023-05-23T12:41:58.298Z,3.13
2023-05-23T12:44:46.118Z,4.00
2023-05-23T12:47:31.822Z,3.60
2023-05-23T12:50:18.136Z,3.33
2023-05-23T12:53:03.851Z,3.30
2023-05-23T12:55:49.898Z,2.95
2023-05-23T12:58:35.420Z,3.20
2023-05-23T13:01:22.228Z,3.47
2023-05-23T13:04:08.115Z,3.42
2023-05-23T13:06:54.731Z,3.45
2023-05-23T13:09:40.136Z,3.75
2023-05-23T13:12:25.950Z,3.28
2023-05-23T13:15:12.017Z,4.03
2023-05-23T13:17:58.260Z,3.33
2023-05-23T13:20:44.054Z,3.47
2023-05-23T13:23:31.006Z,4.03
2023-05-23T13:26:16.586Z,3.95
2023-05-23T13:29:02.545Z,3.97
2023-05-23T13:31:48.576Z,4.15
2023-05-23T13:34:37.546Z,4.20
2023-05-23T13:37:23.196Z,4.05
2023-05-23T13:40:13.239Z,4.10
2023-05-23T13:42:59.060Z,4.15
2023-05-23T13:45:47.328Z,3.92
2023-05-23T13:48:33.187Z,3.83
2023-05-23T13:51:19.014Z,4.97
2023-05-23T13:54:06.205Z,3.95
2023-05-23T13:56:52.321Z,4.50
2023-05-23T13:59:38.146Z,7.32
2023-05-23T14:02:24.415Z,4.88
2023-05-23T14:05:10.435Z,4.95
2023-05-23T14:07:57.016Z,4.78
2023-05-23T14:10:43.110Z,5.25
2023-05-23T14:13:29.080Z,5.60
2023-05-23T14:16:15.078Z,5.50
2023-05-23T14:19:01.681Z,5.38
2023-05-23T14:21:47.601Z,5.25
2023-05-23T14:24:34.267Z,5.22
2023-05-23T14:27:19.920Z,5.43
2023-05-23T14:30:06.880Z,5.53
2023-05-23T14:32:52.832Z,5.93
2023-05-23T14:35:40.099Z,5.80
2023-05-23T14:38:27.199Z,5.47
2023-05-23T14:41:13.992Z,6.22
2023-05-23T14:43:59.353Z,7.32
2023-05-23T14:46:49.105Z,7.38
2023-05-23T14:49:42.383Z,6.10
2023-05-23T14:52:28.755Z,6.68
2023-05-23T14:55:14.167Z,7.60
2023-05-23T14:58:00.594Z,7.93
2023-05-23T15:00:48.160Z,6.57
2023-05-23T15:03:34.232Z,8.90
2023-05-23T15:06:20.252Z,7.57
2023-05-23T15:09:07.582Z,8.43
2023-05-23T15:11:54.278Z,6.38
2023-05-23T15:14:40.564Z,7.03
2023-05-23T15:17:26.894Z,7.65
2023-05-23T15:20:13.270Z,6.70
2023-05-23T15:22:58.582Z,8.73
2023-05-23T15:25:49.378Z,7.30
2023-05-23T15:28:35.765Z,7.50
2023-05-23T15:31:21.494Z,8.60
2023-05-23T15:34:07.022Z,7.20
2023-05-23T15:36:53.193Z,7.00
2023-05-23T15:39:38.748Z,7.53
2023-05-23T15:42:24.745Z,7.60
2023-05-23T15:45:11.568Z,7.15
2023-05-23T15:47:57.807Z,8.75
2023-05-23T15:50:44.225Z,9.43
2023-05-23T15:53:34.418Z,8.05
2023-05-23T15:56:23.108Z,9.00
2023-05-23T15:59:09.475Z,8.50
2023-05-23T16:01:56.230Z,7.25
2023-05-23T16:04:42.474Z,7.93
2023-05-23T16:07:28.071Z,8.60
2023-05-23T16:10:14.411Z,8.40
2023-05-23T16:13:00.058Z,9.85
2023-05-23T16:15:46.148Z,9.63
2023-05-23T16:18:31.701Z,9.73
2023-05-23T16:21:20.677Z,8.27
2023-05-23T16:24:06.707Z,9.93
2023-05-23T16:26:53.045Z,10.63
2023-05-23T16:29:38.694Z,10.55
2023-05-23T16:32:24.857Z,10.75
2023-05-23T16:35:13.797Z,9.45
2023-05-23T16:37:59.924Z,10.10
2023-05-23T16:40:45.542Z,10.13
2023-05-23T16:43:31.150Z,9.35
2023-05-23T16:46:19.035Z,9.32
2023-05-23T16:49:13.477Z,8.85
2023-05-23T16:51:59.255Z,8.75
2023-05-23T16:54:45.676Z,9.20
2023-05-23T16:57:31.493Z,10.45
2023-05-23T17:00:17.396Z,10.07
2023-05-23T17:03:02.912Z,9.88
2023-05-23T17:05:49.026Z,9.88
2023-05-23T17:08:34.623Z,9.45
2023-05-23T17:11:20.710Z,8.68
2023-05-23T17:14:06.091Z,9.88
2023-05-23T17:16:51.900Z,9.07
2023-05-23T17:19:42.517Z,8.60
2023-05-23T17:23:03.653Z,8.93
2023-05-23T17:25:49.549Z,8.25
2023-05-23T17:28:35.885Z,8.07
2023-05-23T17:31:21.562Z,8.13
2023-05-23T17:34:07.563Z,9.15
2023-05-23T17:36:52.960Z,9.27
2023-05-23T17:39:39.052Z,7.78
2023-05-23T17:42:25.094Z,8.82
2023-05-23T17:45:11.764Z,11.30
2023-05-23T17:48:15.254Z,9.43
2023-05-23T17:51:01.108Z,9.90
2023-05-23T17:53:47.064Z,9.57
2023-05-23T17:56:33.064Z,9.68
2023-05-23T17:59:18.547Z,9.63
2023-05-23T18:02:04.892Z,8.48
2023-05-23T18:04:50.787Z,8.38
2023-05-23T18:07:37.482Z,9.75
2023-05-23T18:10:24.689Z,8.85
2023-05-23T18:13:10.896Z,11.52
2023-05-23T18:15:56.290Z,10.98
2023-05-23T18:18:42.461Z,11.70
2023-05-23T18:21:28.846Z,9.68
2023-05-23T18:24:14.671Z,8.88
2023-05-23T18:27:00.812Z,9.55
2023-05-23T18:29:45.361Z,8.65
2023-05-23T18:32:31.508Z,8.77
2023-05-23T18:35:17.716Z,9.52
2023-05-23T18:38:03.248Z,9.75
2023-05-23T18:40:50.707Z,9.20
2023-05-23T18:43:36.692Z,9.48
2023-05-23T18:46:24.181Z,9.48
2023-05-23T18:49:09.748Z,9.13
2023-05-23T18:51:55.999Z,8.60
2023-05-23T18:54:42.411Z,8.88
2023-05-23T18:57:29.133Z,8.63
2023-05-23T19:00:14.911Z,8.23
2023-05-23T19:03:01.196Z,10.15
2023-05-23T19:05:47.237Z,8.93
2023-05-23T19:08:33.516Z,10.25
2023-05-23T19:11:19.010Z,8.18
2023-05-23T19:14:04.930Z,9.40
2023-05-23T19:16:51.516Z,9.43
2023-05-23T19:19:38.308Z,9.93
2023-05-23T19:22:24.305Z,9.75
2023-05-23T19:25:10.402Z,11.00
2023-05-23T19:27:55.998Z,11.13
2023-05-23T19:30:44.023Z,10.75
2023-05-23T19:33:29.589Z,10.27
2023-05-23T19:36:15.346Z,10.82
2023-05-23T19:39:01.595Z,10.70
2023-05-23T19:41:47.575Z,9.68
2023-05-23T19:44:32.836Z,10.00
2023-05-23T19:47:18.814Z,11.15
2023-05-23T19:50:07.263Z,11.25
2023-05-23T19:52:53.279Z,9.35
2023-05-23T19:55:40.609Z,9.55
2023-05-23T19:58:27.041Z,10.77
2023-05-23T20:01:12.582Z,10.32
2023-05-23T20:03:59.042Z,11.02
2023-05-23T20:06:44.942Z,10.38
2023-05-23T20:09:31.037Z,11.85
2023-05-23T20:12:16.964Z,10.90
2023-05-23T20:15:03.534Z,12.40
2023-05-23T20:17:48.991Z,13.18
2023-05-23T20:20:35.309Z,12.45
2023-05-23T20:23:20.907Z,10.40
2023-05-23T20:26:09.524Z,10.30
2023-05-23T20:28:55.941Z,10.43
2023-05-23T20:31:42.407Z,11.30
2023-05-23T20:34:28.397Z,10.93
2023-05-23T20:37:14.891Z,11.10
2023-05-23T20:40:00.663Z,10.65
2023-05-23T20:42:49.795Z,9.40
2023-05-23T20:45:35.484Z,9.85
2023-05-23T20:48:21.441Z,10.63
2023-05-23T20:51:08.135Z,10.27
2023-05-23T20:53:53.939Z,10.80
2023-05-23T20:56:39.337Z,9.60
2023-05-23T20:59:26.206Z,11.30
2023-05-23T21:02:13.227Z,15.85
2023-05-23T21:04:59.078Z,17.80
2023-05-23T21:07:44.731Z,14.13
2023-05-23T21:10:30.436Z,17.77
2023-05-23T21:13:15.846Z,12.50
2023-05-23T21:16:01.871Z,14.10
2023-05-23T21:18:47.353Z,11.70
2023-05-23T21:21:33.852Z,12.50
2023-05-23T21:24:19.612Z,12.75
2023-05-23T21:27:05.721Z,11.63
2023-05-23T21:29:51.748Z,11.43
2023-05-23T21:32:38.440Z,11.02
2023-05-23T21:35:24.389Z,10.07
2023-05-23T21:38:10.875Z,10.63
2023-05-23T21:40:56.647Z,12.73
2023-05-23T21:43:43.172Z,11.23
2023-05-23T21:46:28.855Z,10.98
2023-05-23T21:49:14.666Z,11.55
2023-05-23T21:52:03.791Z,11.05
2023-05-23T21:54:49.878Z,10.75
2023-05-23T21:57:35.566Z,10.55
2023-05-23T22:00:22.754Z,12.10
2023-05-23T22:03:08.428Z,12.18
2023-05-23T22:05:54.356Z,12.63
2023-05-23T22:08:39.828Z,13.32
2023-05-23T22:11:29.643Z,11.73
2023-05-23T22:14:15.626Z,12.55
2023-05-23T22:17:02.404Z,12.18
2023-05-23T22:19:48.606Z,10.65
2023-05-23T22:22:34.159Z,11.45
2023-05-23T22:25:19.777Z,12.02
2023-05-23T22:28:05.650Z,11.63
2023-05-23T22:30:51.118Z,11.68
2023-05-23T22:33:37.708Z,10.95
2023-05-23T22:36:23.431Z,11.80
2023-05-23T22:39:09.657Z,11.38
2023-05-23T22:41:55.184Z,10.32
2023-05-23T22:44:41.040Z,10.65
2023-05-23T22:47:29.381Z,12.27
2023-05-23T22:50:15.653Z,11.27
2023-05-23T22:53:01.089Z,11.45
2023-05-23T22:55:47.112Z,10.75
2023-05-23T22:58:32.520Z,10.15
2023-05-23T23:01:18.667Z,11.82
2023-05-23T23:04:04.220Z,10.02
2023-05-23T23:06:53.697Z,11.55
2023-05-23T23:09:39.741Z,10.82
2023-05-23T23:12:26.008Z,11.10
2023-05-23T23:15:11.827Z,11.63
2023-05-23T23:17:57.898Z,12.07
2023-05-23T23:20:44.298Z,11.85
2023-05-23T23:23:30.937Z,11.70
2023-05-23T23:26:16.671Z,10.93
2023-05-23T23:29:03.420Z,10.75
2023-05-23T23:31:49.456Z,11.75
2023-05-23T23:34:35.872Z,11.98
2023-05-23T23:37:21.324Z,10.98
2023-05-23T23:40:08.723Z,12.00
2023-05-23T23:42:54.357Z,11.48
2023-05-23T23:45:40.400Z,11.10
2023-05-23T23:48:26.354Z,10.88
2023-05-23T23:51:12.963Z,10.60
2023-05-23T23:53:58.999Z,12.15
2023-05-23T23:56:45.517Z,13.18
2023-05-23T23:59:31.388Z,11.90
